sensor_id;sensor_type;location;lat;lon;timestamp;temperature;humidity
2407;DHT22;37709;53.480;9.688;2023-04-01T00:00:52;8.90;99.90
2407;DHT22;37709;53.480;9.688;2023-04-01T00:03:45;8.90;99.90
2407;DHT22;37709;53.480;9.688;2023-04-01T00:06:14;8.90;99.90
2407;DHT22;37709;53.480;9.688;2023-04-01T00:08:43;8.90;99.90
2407;DHT22;37709;53.480;9.688;2023-04-01T00:11:12;8.90;99.90
2407;DHT22;37709;53.480;9.688;2023-04-01T00:13:39;8.90;99.90
2407;DHT22;37709;53.480;9.688;2023-04-01T00:16:07;8.90;99.90
2407;DHT22;37709;53.480;9.688;2023-04-01T00:18:47;8.90;99.90
2407;DHT22;37709;53.480;9.688;2023-04-01T00:21:15;8.90;99.90
2407;DHT22;37709;53.480;9.688;2023-04-01T00:23:43;8.90;99.90
2407;DHT22;37709;53.480;9.688;2023-04-01T00:26:10;8.90;99.90
2407;DHT22;37709;53.480;9.688;2023-04-01T00:28:39;8.90;99.90
2407;DHT22;37709;53.480;9.688;2023-04-01T00:31:08;8.90;99.90
2407;DHT22;37709;53.480;9.688;2023-04-01T00:33:36;8.90;99.90
2407;DHT22;37709;53.480;9.688;2023-04-01T00:36:12;9.00;99.90
2407;DHT22;37709;53.480;9.688;2023-04-01T00:38:40;9.00;99.90
2407;DHT22;37709;53.480;9.688;2023-04-01T00:41:10;9.00;99.90
2407;DHT22;37709;53.480;9.688;2023-04-01T00:43:43;9.00;99.90
2407;DHT22;37709;53.480;9.688;2023-04-01T00:46:11;9.00;99.90
2407;DHT22;37709;53.480;9.688;2023-04-01T00:48:43;9.10;99.90
2407;DHT22;37709;53.480;9.688;2023-04-01T00:51:16;9.10;99.90
2407;DHT22;37709;53.480;9.688;2023-04-01T00:53:47;9.10;99.90
2407;DHT22;37709;53.480;9.688;2023-04-01T00:56:18;9.10;99.90
2407;DHT22;37709;53.480;9.688;2023-04-01T00:58:50;9.10;99.90
2407;DHT22;37709;53.480;9.688;2023-04-01T01:01:20;9.10;99.90
2407;DHT22;37709;53.480;9.688;2023-04-01T01:03:48;9.10;99.90
2407;DHT22;37709;53.480;9.688;2023-04-01T01:12:06;9.10;99.90
2407;DHT22;37709;53.480;9.688;2023-04-01T01:14:48;9.10;99.90
2407;DHT22;37709;53.480;9.688;2023-04-01T01:17:29;9.00;99.90
2407;DHT22;37709;53.480;9.688;2023-04-01T01:23:30;9.00;99.90
2407;DHT22;37709;53.480;9.688;2023-04-01T01:29:16;8.90;99.90
2407;DHT22;37709;53.480;9.688;2023-04-01T01:32:09;8.90;99.90
2407;DHT22;37709;53.480;9.688;2023-04-01T01:37:27;8.90;99.90
2407;DHT22;37709;53.480;9.688;2023-04-01T01:40:04;8.90;99.90
2407;DHT22;37709;53.480;9.688;2023-04-01T01:42:37;8.90;99.90
2407;DHT22;37709;53.480;9.688;2023-04-01T01:45:06;8.90;99.90
2407;DHT22;37709;53.480;9.688;2023-04-01T01:47:34;8.90;99.90
2407;DHT22;37709;53.480;9.688;2023-04-01T01:50:04;8.90;99.90
2407;DHT22;37709;53.480;9.688;2023-04-01T01:52:32;8.90;99.90
2407;DHT22;37709;53.480;9.688;2023-04-01T01:54:59;8.90;99.90
2407;DHT22;37709;53.480;9.688;2023-04-01T01:57:37;8.90;99.90
2407;DHT22;37709;53.480;9.688;2023-04-01T02:00:10;8.90;99.90
2407;DHT22;37709;53.480;9.688;2023-04-01T02:02:44;8.90;99.90
2407;DHT22;37709;53.480;9.688;2023-04-01T02:05:19;8.90;99.90
2407;DHT22;37709;53.480;9.688;2023-04-01T02:08:02;8.90;99.90
2407;DHT22;37709;53.480;9.688;2023-04-01T02:10:36;8.80;99.90
2407;DHT22;37709;53.480;9.688;2023-04-01T02:13:10;8.80;99.90
2407;DHT22;37709;53.480;9.688;2023-04-01T02:15:44;8.80;99.90
2407;DHT22;37709;53.480;9.688;2023-04-01T02:18:15;8.80;99.90
2407;DHT22;37709;53.480;9.688;2023-04-01T02:20:44;8.80;99.90
2407;DHT22;37709;53.480;9.688;2023-04-01T02:23:12;8.80;99.90
2407;DHT22;37709;53.480;9.688;2023-04-01T02:25:43;8.70;99.90
2407;DHT22;37709;53.480;9.688;2023-04-01T02:28:12;8.60;99.90
2407;DHT22;37709;53.480;9.688;2023-04-01T02:30:43;8.60;99.90
2407;DHT22;37709;53.480;9.688;2023-04-01T02:33:12;8.70;99.90
2407;DHT22;37709;53.480;9.688;2023-04-01T02:35:40;8.70;99.90
2407;DHT22;37709;53.480;9.688;2023-04-01T02:38:08;8.70;99.90
2407;DHT22;37709;53.480;9.688;2023-04-01T02:40:45;8.80;99.90
2407;DHT22;37709;53.480;9.688;2023-04-01T02:43:13;8.80;99.90
2407;DHT22;37709;53.480;9.688;2023-04-01T02:45:40;8.80;99.90
2407;DHT22;37709;53.480;9.688;2023-04-01T02:48:08;8.80;99.90
2407;DHT22;37709;53.480;9.688;2023-04-01T02:50:35;8.90;99.90
2407;DHT22;37709;53.480;9.688;2023-04-01T02:53:02;8.90;99.90
2407;DHT22;37709;53.480;9.688;2023-04-01T02:55:30;8.90;99.90
2407;DHT22;37709;53.480;9.688;2023-04-01T02:57:59;8.90;99.90
2407;DHT22;37709;53.480;9.688;2023-04-01T03:00:28;8.90;99.90
2407;DHT22;37709;53.480;9.688;2023-04-01T03:02:55;8.90;99.90
2407;DHT22;37709;53.480;9.688;2023-04-01T03:05:24;8.90;99.90
2407;DHT22;37709;53.480;9.688;2023-04-01T03:07:51;8.90;99.90
2407;DHT22;37709;53.480;9.688;2023-04-01T03:10:19;8.90;99.90
2407;DHT22;37709;53.480;9.688;2023-04-01T03:12:46;8.90;99.90
2407;DHT22;37709;53.480;9.688;2023-04-01T03:15:14;8.90;99.90
2407;DHT22;37709;53.480;9.688;2023-04-01T03:17:42;8.90;99.90
2407;DHT22;37709;53.480;9.688;2023-04-01T03:20:11;8.90;99.90
2407;DHT22;37709;53.480;9.688;2023-04-01T03:22:39;8.90;99.90
2407;DHT22;37709;53.480;9.688;2023-04-01T03:25:09;8.90;99.90
2407;DHT22;37709;53.480;9.688;2023-04-01T03:27:38;8.90;99.90
2407;DHT22;37709;53.480;9.688;2023-04-01T03:30:06;8.90;99.90
2407;DHT22;37709;53.480;9.688;2023-04-01T03:32:40;8.90;99.90
2407;DHT22;37709;53.480;9.688;2023-04-01T03:35:08;8.90;99.90
2407;DHT22;37709;53.480;9.688;2023-04-01T03:37:36;8.90;99.90
2407;DHT22;37709;53.480;9.688;2023-04-01T03:40:05;8.90;99.90
2407;DHT22;37709;53.480;9.688;2023-04-01T03:42:32;8.90;99.90
2407;DHT22;37709;53.480;9.688;2023-04-01T03:44:59;8.90;99.90
2407;DHT22;37709;53.480;9.688;2023-04-01T03:47:28;8.90;99.90
2407;DHT22;37709;53.480;9.688;2023-04-01T03:49:57;8.90;99.90
2407;DHT22;37709;53.480;9.688;2023-04-01T03:52:25;8.90;99.90
2407;DHT22;37709;53.480;9.688;2023-04-01T03:54:53;8.90;99.90
2407;DHT22;37709;53.480;9.688;2023-04-01T03:57:21;8.90;99.90
2407;DHT22;37709;53.480;9.688;2023-04-01T03:59:48;8.80;99.90
2407;DHT22;37709;53.480;9.688;2023-04-01T04:02:16;8.90;99.90
2407;DHT22;37709;53.480;9.688;2023-04-01T04:04:43;8.90;99.90
2407;DHT22;37709;53.480;9.688;2023-04-01T04:07:11;8.90;99.90
2407;DHT22;37709;53.480;9.688;2023-04-01T04:09:58;8.90;99.90
2407;DHT22;37709;53.480;9.688;2023-04-01T04:12:25;8.80;99.90
2407;DHT22;37709;53.480;9.688;2023-04-01T04:14:53;8.80;99.90
2407;DHT22;37709;53.480;9.688;2023-04-01T04:17:21;8.90;99.90
2407;DHT22;37709;53.480;9.688;2023-04-01T04:19:48;8.90;99.90
2407;DHT22;37709;53.480;9.688;2023-04-01T04:22:16;8.90;99.90
2407;DHT22;37709;53.480;9.688;2023-04-01T04:24:43;8.90;99.90
2407;DHT22;37709;53.480;9.688;2023-04-01T04:27:12;8.90;99.90
2407;DHT22;37709;53.480;9.688;2023-04-01T04:29:52;8.90;99.90
2407;DHT22;37709;53.480;9.688;2023-04-01T04:32:20;8.90;99.90
2407;DHT22;37709;53.480;9.688;2023-04-01T04:34:47;8.90;99.90
2407;DHT22;37709;53.480;9.688;2023-04-01T04:37:14;8.90;99.90
2407;DHT22;37709;53.480;9.688;2023-04-01T04:39:43;8.90;99.90
2407;DHT22;37709;53.480;9.688;2023-04-01T04:42:10;8.90;99.90
2407;DHT22;37709;53.480;9.688;2023-04-01T04:44:39;8.90;99.90
2407;DHT22;37709;53.480;9.688;2023-04-01T04:47:06;8.90;99.90
2407;DHT22;37709;53.480;9.688;2023-04-01T04:49:34;8.90;99.90
2407;DHT22;37709;53.480;9.688;2023-04-01T04:52:06;8.90;99.90
2407;DHT22;37709;53.480;9.688;2023-04-01T04:54:33;8.90;99.90
2407;DHT22;37709;53.480;9.688;2023-04-01T04:57:03;8.90;99.90
2407;DHT22;37709;53.480;9.688;2023-04-01T04:59:35;8.90;99.90
2407;DHT22;37709;53.480;9.688;2023-04-01T05:02:09;8.90;99.90
2407;DHT22;37709;53.480;9.688;2023-04-01T05:04:36;8.90;99.90
2407;DHT22;37709;53.480;9.688;2023-04-01T05:07:06;8.90;99.90
2407;DHT22;37709;53.480;9.688;2023-04-01T05:09:35;8.90;99.90
2407;DHT22;37709;53.480;9.688;2023-04-01T05:12:03;8.90;99.90
2407;DHT22;37709;53.480;9.688;2023-04-01T05:14:55;9.00;99.90
2407;DHT22;37709;53.480;9.688;2023-04-01T05:17:23;9.00;99.90
2407;DHT22;37709;53.480;9.688;2023-04-01T05:19:52;9.00;99.90
2407;DHT22;37709;53.480;9.688;2023-04-01T05:22:20;9.00;99.90
2407;DHT22;37709;53.480;9.688;2023-04-01T05:24:48;9.00;99.90
2407;DHT22;37709;53.480;9.688;2023-04-01T05:27:19;9.00;99.90
2407;DHT22;37709;53.480;9.688;2023-04-01T05:29:47;9.10;99.90
2407;DHT22;37709;53.480;9.688;2023-04-01T05:32:34;9.10;99.90
2407;DHT22;37709;53.480;9.688;2023-04-01T05:35:02;9.10;99.90
2407;DHT22;37709;53.480;9.688;2023-04-01T05:37:29;9.10;99.90
2407;DHT22;37709;53.480;9.688;2023-04-01T05:39:57;9.10;99.90
2407;DHT22;37709;53.480;9.688;2023-04-01T05:42:26;9.20;99.90
2407;DHT22;37709;53.480;9.688;2023-04-01T05:44:53;9.20;99.90
2407;DHT22;37709;53.480;9.688;2023-04-01T05:47:41;9.20;99.90
2407;DHT22;37709;53.480;9.688;2023-04-01T05:50:10;9.30;99.90
2407;DHT22;37709;53.480;9.688;2023-04-01T05:52:40;9.30;99.90
2407;DHT22;37709;53.480;9.688;2023-04-01T05:55:08;9.30;99.90
2407;DHT22;37709;53.480;9.688;2023-04-01T05:57:36;9.30;99.90
2407;DHT22;37709;53.480;9.688;2023-04-01T06:00:05;9.40;99.90
2407;DHT22;37709;53.480;9.688;2023-04-01T06:02:38;9.40;99.90
2407;DHT22;37709;53.480;9.688;2023-04-01T06:05:23;9.50;99.90
2407;DHT22;37709;53.480;9.688;2023-04-01T06:07:57;9.50;99.90
2407;DHT22;37709;53.480;9.688;2023-04-01T06:10:51;9.50;99.90
2407;DHT22;37709;53.480;9.688;2023-04-01T06:13:36;9.50;99.90
2407;DHT22;37709;53.480;9.688;2023-04-01T06:16:24;9.50;99.90
2407;DHT22;37709;53.480;9.688;2023-04-01T06:24:37;9.50;99.90
2407;DHT22;37709;53.480;9.688;2023-04-01T06:27:15;9.60;99.90
2407;DHT22;37709;53.480;9.688;2023-04-01T06:32:55;9.50;99.90
2407;DHT22;37709;53.480;9.688;2023-04-01T06:35:31;9.40;99.90
2407;DHT22;37709;53.480;9.688;2023-04-01T06:41:19;9.20;99.90
2407;DHT22;37709;53.480;9.688;2023-04-01T06:50:58;8.80;99.90
2407;DHT22;37709;53.480;9.688;2023-04-01T06:56:53;8.70;99.90
2407;DHT22;37709;53.480;9.688;2023-04-01T06:59:32;8.70;99.90
2407;DHT22;37709;53.480;9.688;2023-04-01T07:02:22;8.60;99.90
2407;DHT22;37709;53.480;9.688;2023-04-01T07:04:53;8.60;99.90
2407;DHT22;37709;53.480;9.688;2023-04-01T07:07:36;8.60;99.90
2407;DHT22;37709;53.480;9.688;2023-04-01T07:10:19;8.50;99.90
2407;DHT22;37709;53.480;9.688;2023-04-01T07:13:12;8.50;99.90
2407;DHT22;37709;53.480;9.688;2023-04-01T07:16:13;8.60;99.90
2407;DHT22;37709;53.480;9.688;2023-04-01T07:18:52;8.60;99.90
2407;DHT22;37709;53.480;9.688;2023-04-01T07:21:58;8.60;99.90
2407;DHT22;37709;53.480;9.688;2023-04-01T07:24:40;8.50;99.90
2407;DHT22;37709;53.480;9.688;2023-04-01T07:27:12;8.40;99.90
2407;DHT22;37709;53.480;9.688;2023-04-01T07:29:41;8.40;99.90
2407;DHT22;37709;53.480;9.688;2023-04-01T07:32:28;8.30;99.90
2407;DHT22;37709;53.480;9.688;2023-04-01T07:35:22;8.30;99.90
2407;DHT22;37709;53.480;9.688;2023-04-01T07:38:20;8.30;99.90
2407;DHT22;37709;53.480;9.688;2023-04-01T07:49:07;8.20;99.90
2407;DHT22;37709;53.480;9.688;2023-04-01T07:54:53;8.10;99.90
2407;DHT22;37709;53.480;9.688;2023-04-01T08:00:49;8.10;99.90
2407;DHT22;37709;53.480;9.688;2023-04-01T08:07:31;8.70;99.90
2407;DHT22;37709;53.480;9.688;2023-04-01T08:09:43;8.80;99.90
2407;DHT22;37709;53.480;9.688;2023-04-01T08:15:49;9.40;99.90
2407;DHT22;37709;53.480;9.688;2023-04-01T08:21:44;9.70;99.90
2407;DHT22;37709;53.480;9.688;2023-04-01T08:24:25;9.80;99.90
2407;DHT22;37709;53.480;9.688;2023-04-01T08:32:40;10.00;99.90
2407;DHT22;37709;53.480;9.688;2023-04-01T08:35:18;9.70;99.90
2407;DHT22;37709;53.480;9.688;2023-04-01T08:37:50;9.40;99.90
2407;DHT22;37709;53.480;9.688;2023-04-01T08:43:46;9.10;99.90
2407;DHT22;37709;53.480;9.688;2023-04-01T08:46:38;8.90;99.90
2407;DHT22;37709;53.480;9.688;2023-04-01T08:49:32;8.60;99.90
2407;DHT22;37709;53.480;9.688;2023-04-01T08:52:27;8.60;99.90
2407;DHT22;37709;53.480;9.688;2023-04-01T08:55:02;8.50;99.90
2407;DHT22;37709;53.480;9.688;2023-04-01T09:01:37;8.60;99.90
2407;DHT22;37709;53.480;9.688;2023-04-01T09:05:06;8.50;99.90
2407;DHT22;37709;53.480;9.688;2023-04-01T09:16:27;8.40;99.90
2407;DHT22;37709;53.480;9.688;2023-04-01T09:22:25;8.20;99.90
2407;DHT22;37709;53.480;9.688;2023-04-01T09:27:56;8.30;99.90
2407;DHT22;37709;53.480;9.688;2023-04-01T09:30:34;8.20;99.90
2407;DHT22;37709;53.480;9.688;2023-04-01T09:36:04;8.20;99.90
2407;DHT22;37709;53.480;9.688;2023-04-01T09:38:52;8.40;99.90
2407;DHT22;37709;53.480;9.688;2023-04-01T09:41:36;8.50;99.90
2407;DHT22;37709;53.480;9.688;2023-04-01T09:44:35;8.50;99.90
2407;DHT22;37709;53.480;9.688;2023-04-01T09:50:38;8.20;99.90
2407;DHT22;37709;53.480;9.688;2023-04-01T09:53:36;8.10;99.90
2407;DHT22;37709;53.480;9.688;2023-04-01T09:59:31;7.90;99.90
2407;DHT22;37709;53.480;9.688;2023-04-01T10:02:33;7.80;99.90
2407;DHT22;37709;53.480;9.688;2023-04-01T10:05:52;8.00;99.90
2407;DHT22;37709;53.480;9.688;2023-04-01T10:08:44;8.10;99.90
2407;DHT22;37709;53.480;9.688;2023-04-01T10:20:20;8.00;99.90
2407;DHT22;37709;53.480;9.688;2023-04-01T10:32:40;8.30;99.90
2407;DHT22;37709;53.480;9.688;2023-04-01T10:35:50;8.30;99.90
2407;DHT22;37709;53.480;9.688;2023-04-01T10:48:12;8.30;99.90
2407;DHT22;37709;53.480;9.688;2023-04-01T10:53:31;8.30;99.90
2407;DHT22;37709;53.480;9.688;2023-04-01T10:56:51;8.30;99.90
2407;DHT22;37709;53.480;9.688;2023-04-01T11:00:16;8.50;99.90
2407;DHT22;37709;53.480;9.688;2023-04-01T11:27:01;8.20;99.90
2407;DHT22;37709;53.480;9.688;2023-04-01T11:29:46;8.20;99.90
2407;DHT22;37709;53.480;9.688;2023-04-01T11:38:36;8.10;99.90
2407;DHT22;37709;53.480;9.688;2023-04-01T11:45:15;8.10;99.90
2407;DHT22;37709;53.480;9.688;2023-04-01T11:47:55;8.10;99.90
2407;DHT22;37709;53.480;9.688;2023-04-01T11:50:53;8.30;99.90
2407;DHT22;37709;53.480;9.688;2023-04-01T11:53:41;8.40;99.90
2407;DHT22;37709;53.480;9.688;2023-04-01T11:58:51;8.60;99.90
2407;DHT22;37709;53.480;9.688;2023-04-01T12:01:43;8.50;99.90
2407;DHT22;37709;53.480;9.688;2023-04-01T12:04:54;8.50;99.90
2407;DHT22;37709;53.480;9.688;2023-04-01T12:08:01;8.40;99.90
2407;DHT22;37709;53.480;9.688;2023-04-01T12:10:33;8.40;99.90
2407;DHT22;37709;53.480;9.688;2023-04-01T12:13:27;8.50;99.90
2407;DHT22;37709;53.480;9.688;2023-04-01T12:16:24;8.50;99.90
2407;DHT22;37709;53.480;9.688;2023-04-01T12:24:45;8.30;99.90
2407;DHT22;37709;53.480;9.688;2023-04-01T12:30:46;8.20;99.90
2407;DHT22;37709;53.480;9.688;2023-04-01T12:42:27;8.30;99.90
2407;DHT22;37709;53.480;9.688;2023-04-01T12:45:31;8.20;99.90
2407;DHT22;37709;53.480;9.688;2023-04-01T12:48:23;8.30;99.90
2407;DHT22;37709;53.480;9.688;2023-04-01T12:59:27;8.00;99.90
2407;DHT22;37709;53.480;9.688;2023-04-01T13:02:15;7.90;99.90
2407;DHT22;37709;53.480;9.688;2023-04-01T13:07:56;7.60;99.90
2407;DHT22;37709;53.480;9.688;2023-04-01T13:19:17;7.40;99.90
2407;DHT22;37709;53.480;9.688;2023-04-01T13:22:00;7.30;99.90
2407;DHT22;37709;53.480;9.688;2023-04-01T13:24:55;7.30;99.90
2407;DHT22;37709;53.480;9.688;2023-04-01T13:27:34;7.40;99.90
2407;DHT22;37709;53.480;9.688;2023-04-01T13:30:24;7.40;99.90
2407;DHT22;37709;53.480;9.688;2023-04-01T13:33:01;7.30;99.90
2407;DHT22;37709;53.480;9.688;2023-04-01T13:43:45;7.30;99.90
2407;DHT22;37709;53.480;9.688;2023-04-01T13:46:40;7.20;99.90
2407;DHT22;37709;53.480;9.688;2023-04-01T13:49:36;7.10;99.90
2407;DHT22;37709;53.480;9.688;2023-04-01T13:52:23;7.10;99.90
2407;DHT22;37709;53.480;9.688;2023-04-01T13:55:22;7.20;99.90
2407;DHT22;37709;53.480;9.688;2023-04-01T13:58:14;7.20;99.90
2407;DHT22;37709;53.480;9.688;2023-04-01T14:04:06;7.20;99.90
2407;DHT22;37709;53.480;9.688;2023-04-01T14:10:16;7.20;99.90
2407;DHT22;37709;53.480;9.688;2023-04-01T14:12:57;7.20;99.90
2407;DHT22;37709;53.480;9.688;2023-04-01T14:18:50;7.30;99.90
2407;DHT22;37709;53.480;9.688;2023-04-01T14:24:46;7.20;99.90
2407;DHT22;37709;53.480;9.688;2023-04-01T14:27:29;7.30;99.90
2407;DHT22;37709;53.480;9.688;2023-04-01T14:35:43;7.40;99.90
2407;DHT22;37709;53.480;9.688;2023-04-01T14:38:37;7.40;99.90
2407;DHT22;37709;53.480;9.688;2023-04-01T14:44:11;7.40;99.90
2407;DHT22;37709;53.480;9.688;2023-04-01T14:47:08;7.30;99.90
2407;DHT22;37709;53.480;9.688;2023-04-01T14:49:43;7.20;99.90
2407;DHT22;37709;53.480;9.688;2023-04-01T14:52:32;7.20;99.90
2407;DHT22;37709;53.480;9.688;2023-04-01T14:55:19;7.20;99.90
2407;DHT22;37709;53.480;9.688;2023-04-01T15:03:32;7.10;99.90
2407;DHT22;37709;53.480;9.688;2023-04-01T15:06:28;7.00;99.90
2407;DHT22;37709;53.480;9.688;2023-04-01T15:12:00;6.80;99.90
2407;DHT22;37709;53.480;9.688;2023-04-01T15:14:45;6.80;99.90
2407;DHT22;37709;53.480;9.688;2023-04-01T15:27:59;6.40;99.90
2407;DHT22;37709;53.480;9.688;2023-04-01T15:30:33;6.30;99.90
2407;DHT22;37709;53.480;9.688;2023-04-01T15:36:55;6.20;99.90
2407;DHT22;37709;53.480;9.688;2023-04-01T15:53:13;6.20;99.90
2407;DHT22;37709;53.480;9.688;2023-04-01T15:56:11;6.20;99.90
2407;DHT22;37709;53.480;9.688;2023-04-01T15:59:03;6.20;99.90
2407;DHT22;37709;53.480;9.688;2023-04-01T16:04:51;6.10;99.90
2407;DHT22;37709;53.480;9.688;2023-04-01T16:10:38;5.80;99.90
2407;DHT22;37709;53.480;9.688;2023-04-01T16:16:43;5.70;99.90
2407;DHT22;37709;53.480;9.688;2023-04-01T16:22:02;5.60;99.90
2407;DHT22;37709;53.480;9.688;2023-04-01T16:27:13;5.50;99.90
2407;DHT22;37709;53.480;9.688;2023-04-01T16:29:53;5.50;99.90
2407;DHT22;37709;53.480;9.688;2023-04-01T16:32:29;5.50;99.90
2407;DHT22;37709;53.480;9.688;2023-04-01T16:37:50;5.30;99.90
2407;DHT22;37709;53.480;9.688;2023-04-01T16:51:44;5.10;99.90
2407;DHT22;37709;53.480;9.688;2023-04-01T16:54:56;5.00;99.90
2407;DHT22;37709;53.480;9.688;2023-04-01T17:00:39;5.00;99.90
2407;DHT22;37709;53.480;9.688;2023-04-01T17:11:45;4.80;99.90
2407;DHT22;37709;53.480;9.688;2023-04-01T17:17:11;4.70;99.90
2407;DHT22;37709;53.480;9.688;2023-04-01T17:22:36;4.70;99.90
2407;DHT22;37709;53.480;9.688;2023-04-01T17:30:42;4.60;99.90
2407;DHT22;37709;53.480;9.688;2023-04-01T17:49:24;4.40;99.90
2407;DHT22;37709;53.480;9.688;2023-04-01T17:52:19;4.30;99.90
2407;DHT22;37709;53.480;9.688;2023-04-01T18:00:34;4.20;99.90
2407;DHT22;37709;53.480;9.688;2023-04-01T18:06:19;4.20;99.90
2407;DHT22;37709;53.480;9.688;2023-04-01T18:12:13;4.10;99.90
2407;DHT22;37709;53.480;9.688;2023-04-01T18:15:04;4.10;99.90
2407;DHT22;37709;53.480;9.688;2023-04-01T18:20:43;4.10;99.90
2407;DHT22;37709;53.480;9.688;2023-04-01T18:23:26;4.10;99.90
2407;DHT22;37709;53.480;9.688;2023-04-01T18:26:04;4.10;99.90
2407;DHT22;37709;53.480;9.688;2023-04-01T18:28:40;4.20;99.90
2407;DHT22;37709;53.480;9.688;2023-04-01T18:31:15;4.20;99.90
2407;DHT22;37709;53.480;9.688;2023-04-01T18:34:42;4.20;99.90
2407;DHT22;37709;53.480;9.688;2023-04-01T18:36:51;4.20;99.90
2407;DHT22;37709;53.480;9.688;2023-04-01T18:39:35;4.20;99.90
2407;DHT22;37709;53.480;9.688;2023-04-01T18:50:48;4.20;99.90
2407;DHT22;37709;53.480;9.688;2023-04-01T18:53:29;4.20;99.90
2407;DHT22;37709;53.480;9.688;2023-04-01T18:56:01;4.20;99.90
2407;DHT22;37709;53.480;9.688;2023-04-01T19:03:57;4.10;99.90
2407;DHT22;37709;53.480;9.688;2023-04-01T19:06:30;4.10;99.90
2407;DHT22;37709;53.480;9.688;2023-04-01T19:20:51;4.00;99.90
2407;DHT22;37709;53.480;9.688;2023-04-01T19:23:48;4.00;99.90
2407;DHT22;37709;53.480;9.688;2023-04-01T19:26:42;3.90;99.90
2407;DHT22;37709;53.480;9.688;2023-04-01T19:32:17;4.00;99.90
2407;DHT22;37709;53.480;9.688;2023-04-01T19:35:21;3.90;99.90
2407;DHT22;37709;53.480;9.688;2023-04-01T19:37:57;3.90;99.90
2407;DHT22;37709;53.480;9.688;2023-04-01T19:40:35;3.90;99.90
2407;DHT22;37709;53.480;9.688;2023-04-01T19:45:57;3.90;99.90
2407;DHT22;37709;53.480;9.688;2023-04-01T19:48:51;3.80;99.90
2407;DHT22;37709;53.480;9.688;2023-04-01T19:59:31;3.70;99.90
2407;DHT22;37709;53.480;9.688;2023-04-01T20:05:44;3.60;99.90
2407;DHT22;37709;53.480;9.688;2023-04-01T20:11:27;3.50;99.90
2407;DHT22;37709;53.480;9.688;2023-04-01T20:17:02;3.30;99.90
2407;DHT22;37709;53.480;9.688;2023-04-01T20:19:44;3.30;99.90
2407;DHT22;37709;53.480;9.688;2023-04-01T20:22:27;3.40;99.90
2407;DHT22;37709;53.480;9.688;2023-04-01T20:25:00;3.40;99.90
2407;DHT22;37709;53.480;9.688;2023-04-01T20:27:35;3.40;99.90
2407;DHT22;37709;53.480;9.688;2023-04-01T20:30:29;3.40;99.90
2407;DHT22;37709;53.480;9.688;2023-04-01T20:42:02;3.10;99.90
2407;DHT22;37709;53.480;9.688;2023-04-01T20:44:46;3.10;99.90
2407;DHT22;37709;53.480;9.688;2023-04-01T20:50:29;3.00;99.90
2407;DHT22;37709;53.480;9.688;2023-04-01T20:53:20;2.90;99.90
2407;DHT22;37709;53.480;9.688;2023-04-01T20:59:02;2.60;99.90
2407;DHT22;37709;53.480;9.688;2023-04-01T21:04:24;2.20;99.90
2407;DHT22;37709;53.480;9.688;2023-04-01T21:10:01;1.80;99.90
2407;DHT22;37709;53.480;9.688;2023-04-01T21:12:46;1.80;99.90
2407;DHT22;37709;53.480;9.688;2023-04-01T21:15:45;1.70;99.90
2407;DHT22;37709;53.480;9.688;2023-04-01T21:18:42;1.60;99.90
2407;DHT22;37709;53.480;9.688;2023-04-01T21:24:39;1.50;99.90
2407;DHT22;37709;53.480;9.688;2023-04-01T21:30:49;1.30;99.90
2407;DHT22;37709;53.480;9.688;2023-04-01T21:33:38;1.20;99.90
2407;DHT22;37709;53.480;9.688;2023-04-01T21:45:02;1.10;99.90
2407;DHT22;37709;53.480;9.688;2023-04-01T21:48:03;1.10;99.90
2407;DHT22;37709;53.480;9.688;2023-04-01T21:54:11;0.80;99.90
2407;DHT22;37709;53.480;9.688;2023-04-01T21:57:08;0.70;99.90
2407;DHT22;37709;53.480;9.688;2023-04-01T22:00:11;0.80;99.90
2407;DHT22;37709;53.480;9.688;2023-04-01T22:02:58;0.70;99.90
2407;DHT22;37709;53.480;9.688;2023-04-01T22:05:51;0.70;99.90
2407;DHT22;37709;53.480;9.688;2023-04-01T22:08:43;0.70;99.90
2407;DHT22;37709;53.480;9.688;2023-04-01T22:16:37;0.30;99.90
2407;DHT22;37709;53.480;9.688;2023-04-01T22:19:19;0.20;99.90
2407;DHT22;37709;53.480;9.688;2023-04-01T22:21:59;0.20;99.90
2407;DHT22;37709;53.480;9.688;2023-04-01T22:24:40;0.20;99.90
2407;DHT22;37709;53.480;9.688;2023-04-01T22:27:18;0.10;99.90
2407;DHT22;37709;53.480;9.688;2023-04-01T22:30:04;0.20;99.90
2407;DHT22;37709;53.480;9.688;2023-04-01T22:37:57;0.00;99.90
2407;DHT22;37709;53.480;9.688;2023-04-01T22:40:42;-0.10;99.90
2407;DHT22;37709;53.480;9.688;2023-04-01T22:43:15;-0.20;99.90
2407;DHT22;37709;53.480;9.688;2023-04-01T22:46:04;-0.20;99.90
2407;DHT22;37709;53.480;9.688;2023-04-01T22:48:41;-0.20;99.90
2407;DHT22;37709;53.480;9.688;2023-04-01T22:51:18;-0.10;99.90
2407;DHT22;37709;53.480;9.688;2023-04-01T22:54:02;-0.20;99.90
2407;DHT22;37709;53.480;9.688;2023-04-01T22:56:37;-0.20;99.90
2407;DHT22;37709;53.480;9.688;2023-04-01T22:59:16;-0.20;99.90
2407;DHT22;37709;53.480;9.688;2023-04-01T23:02:04;-0.30;99.90
2407;DHT22;37709;53.480;9.688;2023-04-01T23:04:38;-0.30;99.90
2407;DHT22;37709;53.480;9.688;2023-04-01T23:07:48;-0.40;99.90
2407;DHT22;37709;53.480;9.688;2023-04-01T23:13:10;-0.50;99.90
2407;DHT22;37709;53.480;9.688;2023-04-01T23:15:40;-0.50;99.90
2407;DHT22;37709;53.480;9.688;2023-04-01T23:18:27;-0.50;99.90
2407;DHT22;37709;53.480;9.688;2023-04-01T23:26:55;-0.50;99.90
2407;DHT22;37709;53.480;9.688;2023-04-01T23:29:23;-0.50;99.90
2407;DHT22;37709;53.480;9.688;2023-04-01T23:32:00;-0.50;99.90
2407;DHT22;37709;53.480;9.688;2023-04-01T23:34:34;-0.60;99.90
2407;DHT22;37709;53.480;9.688;2023-04-01T23:37:10;-0.70;99.90
2407;DHT22;37709;53.480;9.688;2023-04-01T23:39:41;-0.60;99.90
2407;DHT22;37709;53.480;9.688;2023-04-01T23:42:21;-0.50;99.90
2407;DHT22;37709;53.480;9.688;2023-04-01T23:44:53;-0.50;99.90
2407;DHT22;37709;53.480;9.688;2023-04-01T23:47:24;-0.60;99.90
2407;DHT22;37709;53.480;9.688;2023-04-01T23:50:14;-0.60;99.90
2407;DHT22;37709;53.480;9.688;2023-04-01T23:52:47;-0.60;99.90
2407;DHT22;37709;53.480;9.688;2023-04-01T23:55:23;-0.60;99.90
